createdAt,value
2017-12-08T00:00:16.270Z,96923.58
2017-12-08T00:01:22.287Z,96923.81
2017-12-08T00:02:28.338Z,96921.60
2017-12-08T00:03:34.386Z,96928.55
2017-12-08T00:04:40.727Z,96925.48
2017-12-08T00:05:46.749Z,96926.23
2017-12-08T00:06:52.877Z,96927.53
2017-12-08T00:07:59.001Z,96913.94
2017-12-08T00:09:05.635Z,96910.67
2017-12-08T00:10:11.691Z,96921.36
2017-12-08T00:11:17.720Z,96917.70
2017-12-08T00:12:23.760Z,96915.88
2017-12-08T00:13:29.796Z,96910.95
2017-12-08T00:14:35.715Z,96908.00
2017-12-08T00:15:42.853Z,96917.14
2017-12-08T00:16:48.765Z,96911.45
2017-12-08T00:17:55.109Z,96903.55
2017-12-08T00:19:01.434Z,96912.05
2017-12-08T00:20:07.828Z,96923.03
2017-12-08T00:21:14.234Z,96919.13
2017-12-08T00:22:20.928Z,96915.09
2017-12-08T00:23:27.293Z,96910.73
2017-12-08T00:24:33.658Z,96921.78
2017-12-08T00:25:39.861Z,96928.37
2017-12-08T00:26:46.061Z,96915.57
2017-12-08T00:27:52.266Z,96924.56
2017-12-08T00:28:58.772Z,96924.67
2017-12-08T00:30:04.999Z,96931.62
2017-12-08T00:31:11.758Z,96934.42
2017-12-08T00:32:18.345Z,96932.48
2017-12-08T00:33:24.560Z,96930.42
2017-12-08T00:34:30.749Z,96933.27
2017-12-08T00:35:37.245Z,96936.45
2017-12-08T00:36:43.470Z,96940.55
2017-12-08T00:37:49.802Z,96944.12
2017-12-08T00:38:56.039Z,96952.88
2017-12-08T00:40:02.330Z,96952.52
2017-12-08T00:41:08.772Z,96951.59
2017-12-08T00:42:15.416Z,96942.47
2017-12-08T00:43:22.237Z,96944.38
2017-12-08T00:44:28.607Z,96937.91
2017-12-08T00:45:34.954Z,96952.45
2017-12-08T00:46:41.322Z,96952.02
2017-12-08T00:47:48.023Z,96955.33
2017-12-08T00:48:55.640Z,96946.92
2017-12-08T00:50:02.026Z,96953.94
2017-12-08T00:51:08.376Z,96953.14
2017-12-08T00:52:14.708Z,96946.86
2017-12-08T00:53:21.034Z,96956.19
2017-12-08T00:54:27.477Z,96952.19
2017-12-08T00:55:34.182Z,96954.53
2017-12-08T00:56:40.580Z,96949.44
2017-12-08T00:57:46.865Z,96946.43
2017-12-08T00:58:53.285Z,96947.98
2017-12-08T00:59:59.660Z,96946.43
2017-12-08T01:01:06.074Z,96951.42
2017-12-08T01:02:12.730Z,96960.58
2017-12-08T01:03:19.125Z,96955.42
2017-12-08T01:04:25.525Z,96951.32
2017-12-08T01:05:31.907Z,96959.33
2017-12-08T01:06:38.261Z,96952.38
2017-12-08T01:07:44.640Z,96955.85
2017-12-08T01:08:51.383Z,96957.14
2017-12-08T01:09:57.721Z,96957.38
2017-12-08T01:11:05.055Z,96966.27
2017-12-08T01:12:11.414Z,96968.98
2017-12-08T01:13:17.772Z,96959.26
2017-12-08T01:14:24.208Z,96963.48
2017-12-08T01:15:30.964Z,96964.77
2017-12-08T01:16:37.127Z,96968.91
2017-12-08T01:17:43.226Z,96967.35
2017-12-08T01:18:49.387Z,96970.59
2017-12-08T01:19:55.446Z,96979.75
2017-12-08T01:21:01.632Z,96974.92
2017-12-08T01:22:08.190Z,96972.24
2017-12-08T01:23:14.185Z,96959.84
2017-12-08T01:24:20.275Z,96967.52
2017-12-08T01:25:27.373Z,96963.65
2017-12-08T01:26:33.432Z,96970.59
2017-12-08T01:27:39.483Z,96974.42
2017-12-08T01:28:46.019Z,96968.34
2017-12-08T01:29:52.057Z,96967.55
2017-12-08T01:30:58.102Z,96973.89
2017-12-08T01:32:04.198Z,96969.00
2017-12-08T01:33:10.318Z,96967.22
2017-12-08T01:34:16.400Z,96971.75
2017-12-08T01:35:22.780Z,96969.08
2017-12-08T01:36:29.808Z,96972.41
2017-12-08T01:37:35.799Z,96964.19
2017-12-08T01:38:41.775Z,96969.77
2017-12-08T01:39:47.855Z,96967.55
2017-12-08T01:40:53.892Z,96969.34
2017-12-08T01:42:00.168Z,96975.82
2017-12-08T01:43:06.237Z,96976.58
2017-12-08T01:44:12.285Z,96978.80
2017-12-08T01:45:18.682Z,96972.62
2017-12-08T01:46:24.594Z,96969.64
2017-12-08T01:47:30.474Z,96969.25
2017-12-08T01:48:36.612Z,96992.48
2017-12-08T01:49:42.507Z,96979.83
2017-12-08T01:50:48.644Z,96982.27
2017-12-08T01:51:54.784Z,96984.98
2017-12-08T01:53:00.940Z,96982.14
2017-12-08T01:54:06.984Z,96986.53
2017-12-08T01:55:13.352Z,96984.19
2017-12-08T01:56:19.691Z,96979.16
2017-12-08T01:57:25.611Z,96980.02
2017-12-08T01:58:31.659Z,96981.77
2017-12-08T01:59:37.915Z,96973.30
2017-12-08T02:00:44.058Z,96978.50
2017-12-08T02:01:51.024Z,96978.50
2017-12-08T02:02:57.243Z,96984.58
2017-12-08T02:04:03.458Z,96987.75
2017-12-08T02:05:09.746Z,96978.33
2017-12-08T02:06:16.020Z,96975.36
2017-12-08T02:07:22.378Z,96984.61
2017-12-08T02:08:29.017Z,96976.34
2017-12-08T02:09:35.677Z,96981.30
2017-12-08T02:10:41.895Z,96980.14
2017-12-08T02:11:48.135Z,96979.97
2017-12-08T02:12:54.169Z,96980.23
2017-12-08T02:14:00.263Z,96982.28
2017-12-08T02:15:06.793Z,96978.19
2017-12-08T02:16:13.299Z,96979.74
2017-12-08T02:17:19.459Z,96952.87
2017-12-08T02:18:25.547Z,96973.56
2017-12-08T02:19:31.690Z,96980.16
2017-12-08T02:20:37.788Z,96976.25
2017-12-08T02:21:44.238Z,96967.88
2017-12-08T02:22:50.515Z,96976.41
2017-12-08T02:23:56.660Z,96970.59
2017-12-08T02:25:02.728Z,96984.11
2017-12-08T02:26:08.871Z,96978.03
2017-12-08T02:27:15.245Z,96986.42
2017-12-08T02:28:21.381Z,96992.34
2017-12-08T02:29:27.652Z,96988.73
2017-12-08T02:30:33.803Z,96985.09
2017-12-08T02:31:39.894Z,96990.75
2017-12-08T02:32:45.943Z,96982.13
2017-12-08T02:33:53.046Z,96980.38
2017-12-08T02:34:59.132Z,96986.46
2017-12-08T02:36:05.381Z,96991.39
2017-12-08T02:37:11.534Z,96995.05
2017-12-08T02:38:17.661Z,96996.14
2017-12-08T02:39:23.845Z,96985.75
2017-12-08T02:40:30.266Z,96969.14
2017-12-08T02:41:36.146Z,96982.10
2017-12-08T02:42:41.989Z,96988.26
2017-12-08T02:43:47.910Z,96987.55
2017-12-08T02:44:53.754Z,96999.11
2017-12-08T02:45:59.660Z,96995.52
2017-12-08T02:47:05.819Z,96989.34
2017-12-08T02:48:11.689Z,96987.79
2017-12-08T02:49:17.806Z,96984.32
2017-12-08T02:50:23.754Z,96983.12
2017-12-08T02:51:29.690Z,96978.62
2017-12-08T02:52:36.791Z,96990.49
2017-12-08T02:53:43.000Z,96988.41
2017-12-08T02:54:48.846Z,96983.66
2017-12-08T02:55:54.720Z,96987.95
2017-12-08T02:57:00.594Z,96992.09
2017-12-08T02:58:06.532Z,96999.42
2017-12-08T02:59:12.438Z,96994.12
2017-12-08T03:00:18.692Z,96995.11
2017-12-08T03:01:24.749Z,96988.54
2017-12-08T03:02:30.829Z,96994.89
2017-12-08T03:03:36.949Z,96991.07
2017-12-08T03:04:42.980Z,96990.18
2017-12-08T03:05:49.150Z,96994.57
2017-12-08T03:06:55.710Z,96989.11
2017-12-08T03:08:01.885Z,96995.50
2017-12-08T03:09:08.102Z,96994.09
2017-12-08T03:10:14.413Z,96984.63
2017-12-08T03:11:20.607Z,96985.20
2017-12-08T03:12:26.717Z,96976.26
2017-12-08T03:13:33.184Z,96983.63
2017-12-08T03:14:39.313Z,96990.57
2017-12-08T03:15:45.483Z,96990.43
2017-12-08T03:16:51.864Z,96986.80
2017-12-08T03:17:58.162Z,96986.44
2017-12-08T03:19:04.389Z,96998.26
2017-12-08T03:20:10.950Z,96992.34
2017-12-08T03:21:17.196Z,96988.58
2017-12-08T03:22:23.526Z,96988.97
2017-12-08T03:23:29.862Z,96976.52
2017-12-08T03:24:36.163Z,96997.27
2017-12-08T03:25:42.291Z,96994.69
2017-12-08T03:26:48.721Z,96994.12
2017-12-08T03:27:54.792Z,96996.43
2017-12-08T03:29:00.912Z,96987.42
2017-12-08T03:30:07.175Z,96978.53
2017-12-08T03:31:13.388Z,97001.81
2017-12-08T03:32:19.646Z,97002.70
2017-12-08T03:33:26.201Z,96999.86
2017-12-08T03:34:33.412Z,96994.57
2017-12-08T03:35:39.736Z,96988.75
2017-12-08T03:36:45.959Z,96995.81
2017-12-08T03:37:53.236Z,96996.23
2017-12-08T03:38:59.769Z,96991.92
2017-12-08T03:40:06.447Z,96999.11
2017-12-08T03:41:12.803Z,96989.92
2017-12-08T03:42:18.937Z,96986.73
2017-12-08T03:43:25.493Z,96997.20
2017-12-08T03:44:31.907Z,96988.58
2017-12-08T03:45:38.050Z,97000.98
2017-12-08T03:46:44.433Z,96996.05
2017-12-08T03:47:50.664Z,96980.38
2017-12-08T03:48:56.697Z,96991.92
2017-12-08T03:50:02.740Z,96992.94
2017-12-08T03:51:08.844Z,96998.19
2017-12-08T03:52:14.929Z,97005.25
2017-12-08T03:53:21.295Z,96981.58
2017-12-08T03:54:27.469Z,96996.80
2017-12-08T03:55:33.869Z,96987.39
2017-12-08T03:56:40.003Z,97010.80
2017-12-08T03:57:46.151Z,96990.98
2017-12-08T03:58:53.018Z,97002.93
2017-12-08T03:59:59.388Z,97000.89
2017-12-08T04:01:06.025Z,96998.19
2017-12-08T04:02:12.146Z,96988.51
2017-12-08T04:03:18.386Z,96995.20
2017-12-08T04:04:24.494Z,96997.25
2017-12-08T04:05:31.008Z,96997.82
2017-12-08T04:06:37.336Z,96993.96
2017-12-08T04:07:43.401Z,96976.03
2017-12-08T04:08:49.548Z,96985.35
2017-12-08T04:09:55.637Z,97002.27
2017-12-08T04:11:01.676Z,97007.02
2017-12-08T04:12:07.774Z,96993.16
2017-12-08T04:13:13.892Z,96999.33
2017-12-08T04:14:20.070Z,96988.51
2017-12-08T04:15:26.120Z,96990.41
2017-12-08T04:16:32.197Z,97008.62
2017-12-08T04:17:38.306Z,97002.30
2017-12-08T04:18:44.842Z,96997.16
2017-12-08T04:19:50.986Z,96998.50
2017-12-08T04:20:57.244Z,96994.53
2017-12-08T04:22:03.373Z,97020.25
2017-12-08T04:23:09.545Z,96988.90
2017-12-08T04:24:15.804Z,96988.90
2017-12-08T04:25:22.409Z,96983.48
2017-12-08T04:26:28.519Z,96992.98
2017-12-08T04:27:34.658Z,96975.58
2017-12-08T04:28:40.661Z,96974.42
2017-12-08T04:29:46.596Z,96995.08
2017-12-08T04:30:52.494Z,96959.38
2017-12-08T04:31:58.735Z,96966.36
2017-12-08T04:33:04.617Z,96983.39
2017-12-08T04:34:10.690Z,96983.58
2017-12-08T04:35:16.916Z,96987.88
2017-12-08T04:36:23.289Z,96971.81
2017-12-08T04:37:29.497Z,96980.73
2017-12-08T04:38:36.121Z,96978.92
2017-12-08T04:39:42.325Z,96979.27
2017-12-08T04:40:48.524Z,96977.84
2017-12-08T04:41:55.765Z,96968.53
2017-12-08T04:43:01.807Z,96959.47
2017-12-08T04:44:07.982Z,96974.97
2017-12-08T04:45:14.768Z,96957.30
2017-12-08T04:46:20.936Z,96939.18
2017-12-08T04:47:27.020Z,96953.70
2017-12-08T04:48:33.129Z,97000.52
2017-12-08T04:49:39.046Z,96993.56
2017-12-08T04:50:45.111Z,96967.05
2017-12-08T04:51:51.531Z,96971.45
2017-12-08T04:52:58.655Z,96982.23
2017-12-08T04:54:04.778Z,96967.77
2017-12-08T04:55:10.899Z,96979.03
2017-12-08T04:56:16.929Z,96959.73
2017-12-08T04:57:23.048Z,96963.14
2017-12-08T04:58:29.406Z,96954.28
2017-12-08T04:59:35.583Z,96976.78
2017-12-08T05:00:41.874Z,96958.27
2017-12-08T05:01:48.590Z,96968.84
2017-12-08T05:02:54.727Z,96982.91
2017-12-08T05:04:00.912Z,96971.17
2017-12-08T05:05:07.516Z,96961.25
2017-12-08T05:06:13.899Z,96955.25
2017-12-08T05:07:20.150Z,96988.53
2017-12-08T05:08:26.193Z,96968.51
2017-12-08T05:09:32.376Z,96967.63
2017-12-08T05:10:38.462Z,96956.58
2017-12-08T05:11:44.745Z,96969.59
2017-12-08T05:12:50.723Z,96961.86
2017-12-08T05:13:56.857Z,96980.89
2017-12-08T05:15:03.038Z,96969.39
2017-12-08T05:16:09.296Z,96941.57
2017-12-08T05:17:15.454Z,96943.74
2017-12-08T05:18:22.014Z,96952.05
2017-12-08T05:19:28.430Z,96965.14
2017-12-08T05:20:34.686Z,96964.56
2017-12-08T05:21:40.955Z,96970.59
2017-12-08T05:22:47.261Z,96958.34
2017-12-08T05:23:53.520Z,96972.99
2017-12-08T05:25:00.037Z,96974.23
2017-12-08T05:26:06.147Z,96964.34
2017-12-08T05:27:12.499Z,96965.22
2017-12-08T05:28:18.929Z,96946.50
2017-12-08T05:29:25.309Z,96972.85
2017-12-08T05:30:31.767Z,96972.94
2017-12-08T05:31:38.384Z,96965.22
2017-12-08T05:32:44.528Z,96956.62
2017-12-08T05:33:50.659Z,96962.78
2017-12-08T05:34:56.780Z,96947.34
2017-12-08T05:36:02.841Z,96968.86
2017-12-08T05:37:09.037Z,96970.05
2017-12-08T05:38:15.672Z,96961.67
2017-12-08T05:39:22.018Z,96962.08
2017-12-08T05:40:28.429Z,96975.20
2017-12-08T05:41:34.751Z,96988.95
2017-12-08T05:42:41.000Z,96975.55
2017-12-08T05:43:47.085Z,96976.61
2017-12-08T05:44:53.269Z,96969.52
2017-12-08T05:45:59.367Z,96938.86
2017-12-08T05:47:05.556Z,96963.48
2017-12-08T05:48:11.726Z,96914.55
2017-12-08T05:49:17.830Z,96978.13
2017-12-08T05:50:24.454Z,96972.31
2017-12-08T05:51:31.258Z,96962.46
2017-12-08T05:52:38.666Z,96952.79
2017-12-08T05:53:45.003Z,96949.69
2017-12-08T05:54:51.394Z,96969.39
2017-12-08T05:55:57.669Z,96965.25
2017-12-08T05:57:04.283Z,96969.07
2017-12-08T05:58:10.512Z,96970.70
2017-12-08T05:59:16.634Z,96966.27
2017-12-08T06:00:22.729Z,96965.23
2017-12-08T06:01:28.895Z,96973.35
2017-12-08T06:02:35.035Z,96965.59
2017-12-08T06:03:41.343Z,96964.97
2017-12-08T06:04:47.417Z,96972.06
2017-12-08T06:05:53.719Z,96996.41
2017-12-08T06:07:00.028Z,96993.38
2017-12-08T06:08:07.415Z,96993.78
2017-12-08T06:09:13.699Z,96999.59
2017-12-08T06:10:20.247Z,97008.50
2017-12-08T06:11:26.504Z,96983.61
2017-12-08T06:12:32.810Z,97000.34
2017-12-08T06:13:39.130Z,96997.19
2017-12-08T06:14:45.363Z,96973.95
2017-12-08T06:15:51.685Z,96987.92
2017-12-08T06:16:58.667Z,97001.00
2017-12-08T06:18:04.929Z,96993.36
2017-12-08T06:19:12.021Z,97003.98
2017-12-08T06:20:18.251Z,97010.55
2017-12-08T06:21:24.523Z,97004.01
2017-12-08T06:22:30.791Z,97013.63
2017-12-08T06:23:37.049Z,97012.34
2017-12-08T06:24:43.221Z,97016.91
2017-12-08T06:25:49.681Z,97008.32
2017-12-08T06:26:55.614Z,97012.13
2017-12-08T06:28:01.568Z,97000.86
2017-12-08T06:29:07.926Z,97016.81
2017-12-08T06:30:13.960Z,96995.52
2017-12-08T06:31:20.208Z,97006.55
2017-12-08T06:32:26.431Z,96998.99
2017-12-08T06:33:33.033Z,97004.35
2017-12-08T06:34:39.629Z,97023.30
2017-12-08T06:35:45.852Z,97020.62
2017-12-08T06:36:52.047Z,97020.90
2017-12-08T06:37:59.009Z,97015.23
2017-12-08T06:39:06.045Z,97002.39
2017-12-08T06:40:12.823Z,97022.13
2017-12-08T06:41:19.298Z,97023.84
2017-12-08T06:42:26.146Z,97025.73
2017-12-08T06:43:32.298Z,97029.38
2017-12-08T06:44:38.659Z,97033.30
2017-12-08T06:45:44.915Z,97026.54
2017-12-08T06:46:51.238Z,97022.23
2017-12-08T06:47:57.799Z,97021.12
2017-12-08T06:49:04.850Z,97031.18
2017-12-08T06:50:16.974Z,97031.95
2017-12-08T06:51:24.115Z,97029.59
2017-12-08T06:52:30.318Z,97034.98
2017-12-08T06:53:37.697Z,97029.09
2017-12-08T06:54:44.331Z,97031.80
2017-12-08T06:55:50.621Z,97042.96
2017-12-08T06:56:56.883Z,97027.81
2017-12-08T06:58:03.076Z,97032.06
2017-12-08T06:59:09.274Z,97040.21
2017-12-08T07:00:16.208Z,97066.41
2017-12-08T07:01:22.662Z,97046.18
2017-12-08T07:02:29.055Z,97044.28
2017-12-08T07:03:35.525Z,97044.19
2017-12-08T07:04:41.912Z,97037.53
2017-12-08T07:05:48.272Z,97043.06
2017-12-08T07:06:54.658Z,97048.81
2017-12-08T07:08:01.320Z,97044.44
2017-12-08T07:09:08.130Z,97044.17
2017-12-08T07:10:15.300Z,97047.08
2017-12-08T07:11:21.623Z,97048.23
2017-12-08T07:12:27.772Z,97043.65
2017-12-08T07:13:33.909Z,97056.55
2017-12-08T07:14:40.342Z,97063.53
2017-12-08T07:15:46.485Z,97045.33
2017-12-08T07:16:52.555Z,97071.97
2017-12-08T07:17:58.655Z,97060.87
2017-12-08T07:19:04.875Z,97058.23
2017-12-08T07:20:11.026Z,97052.42
2017-12-08T07:21:17.718Z,97054.75
2017-12-08T07:22:24.091Z,97047.38
2017-12-08T07:23:30.472Z,97058.81
2017-12-08T07:24:36.718Z,97051.57
2017-12-08T07:25:43.089Z,97042.24
2017-12-08T07:26:49.562Z,97054.28
2017-12-08T07:27:56.799Z,97039.21
2017-12-08T07:29:03.228Z,97045.52
2017-12-08T07:30:09.605Z,97061.47
2017-12-08T07:31:16.785Z,97067.27
2017-12-08T07:32:23.175Z,97048.47
2017-12-08T07:33:29.610Z,97059.14
2017-12-08T07:34:36.503Z,97070.03
2017-12-08T07:35:42.885Z,97043.49
2017-12-08T07:36:49.148Z,97049.03
2017-12-08T07:37:55.431Z,97053.55
2017-12-08T07:39:01.814Z,97058.56
2017-12-08T07:40:08.130Z,97056.61
2017-12-08T07:41:14.666Z,97057.06
2017-12-08T07:42:20.995Z,97057.45
2017-12-08T07:43:27.298Z,97053.70
2017-12-08T07:44:33.559Z,97061.19
2017-12-08T07:45:39.910Z,97049.52
2017-12-08T07:46:46.282Z,97053.03
2017-12-08T07:47:52.827Z,97053.67
2017-12-08T07:48:59.125Z,97054.78
2017-12-08T07:50:05.491Z,97057.28
2017-12-08T07:51:11.777Z,97073.81
2017-12-08T07:52:18.076Z,97069.11
2017-12-08T07:53:24.324Z,97063.30
2017-12-08T07:54:31.028Z,97075.19
2017-12-08T07:55:37.273Z,97068.34
2017-12-08T07:56:43.575Z,97061.13
2017-12-08T07:57:49.864Z,97054.62
2017-12-08T07:58:56.234Z,97073.69
2017-12-08T08:00:02.590Z,97053.15
2017-12-08T08:01:09.217Z,97056.48
2017-12-08T08:02:15.555Z,97053.30
2017-12-08T08:03:21.900Z,97064.83
2017-12-08T08:04:28.210Z,97063.36
2017-12-08T08:05:34.576Z,97073.84
2017-12-08T08:06:41.250Z,97079.50
2017-12-08T08:07:47.513Z,97077.62
2017-12-08T08:08:54.037Z,97068.48
2017-12-08T08:10:00.371Z,97077.08
2017-12-08T08:11:06.592Z,97073.02
2017-12-08T08:12:12.841Z,97077.62
2017-12-08T08:13:19.781Z,97082.00
2017-12-08T08:14:26.031Z,97079.86
2017-12-08T08:15:32.415Z,97070.27
2017-12-08T08:16:39.806Z,97078.06
2017-12-08T08:17:46.109Z,97076.03
2017-12-08T08:18:52.469Z,97074.22
2017-12-08T08:19:59.098Z,97076.11
2017-12-08T08:21:05.393Z,97088.95
2017-12-08T08:22:11.797Z,97097.80
2017-12-08T08:23:18.091Z,97084.38
2017-12-08T08:24:24.466Z,97091.73
2017-12-08T08:25:30.793Z,97083.48
2017-12-08T08:26:37.460Z,97087.82
2017-12-08T08:27:43.932Z,97086.68
2017-12-08T08:28:50.427Z,97095.09
2017-12-08T08:29:56.752Z,97089.98
2017-12-08T08:31:03.925Z,97078.83
2017-12-08T08:32:10.269Z,97085.70
2017-12-08T08:33:17.020Z,97090.10
2017-12-08T08:34:23.395Z,97092.77
2017-12-08T08:35:29.799Z,97085.03
2017-12-08T08:38:11.578Z,97089.37
2017-12-08T08:39:18.061Z,97087.69
2017-12-08T08:40:24.460Z,97088.94
2017-12-08T08:41:30.841Z,97087.45
2017-12-08T08:42:37.150Z,97088.94
2017-12-08T08:43:43.669Z,97091.45
2017-12-08T08:44:50.276Z,97086.98
2017-12-08T08:45:56.626Z,97085.30
2017-12-08T08:47:02.997Z,97082.52
2017-12-08T08:48:09.432Z,97076.52
2017-12-08T08:49:15.837Z,97070.83
2017-12-08T08:50:22.161Z,97089.73
2017-12-08T08:51:28.860Z,97075.70
2017-12-08T08:52:35.204Z,97072.03
2017-12-08T08:53:41.513Z,97070.41
2017-12-08T08:54:47.866Z,97067.56
2017-12-08T08:55:54.172Z,97070.62
2017-12-08T08:57:00.511Z,97074.14
2017-12-08T08:58:07.241Z,97073.66
2017-12-08T08:59:13.729Z,97077.30
2017-12-08T09:00:21.065Z,97078.30
2017-12-08T09:01:27.497Z,97076.62
2017-12-08T09:02:33.854Z,97067.20
2017-12-08T09:03:40.320Z,97077.44
2017-12-08T09:04:46.990Z,97081.39
2017-12-08T09:05:53.348Z,97074.08
2017-12-08T09:06:59.750Z,97069.31
2017-12-08T09:08:06.209Z,97082.61
2017-12-08T09:09:12.610Z,97080.94
2017-12-08T09:10:18.947Z,97077.20
2017-12-08T09:11:25.485Z,97080.90
2017-12-08T09:12:31.878Z,97080.17
2017-12-08T09:13:38.293Z,97075.85
2017-12-08T09:14:44.508Z,97079.22
2017-12-08T09:15:50.758Z,97079.61
2017-12-08T09:16:57.055Z,97068.72
2017-12-08T09:18:03.771Z,97066.61
2017-12-08T09:19:10.117Z,97073.42
2017-12-08T09:20:16.499Z,97059.27
2017-12-08T09:21:22.869Z,97078.15
2017-12-08T09:22:29.212Z,97086.77
2017-12-08T09:23:35.586Z,97080.06
2017-12-08T09:24:42.088Z,97080.05
2017-12-08T09:25:48.485Z,97084.53
2017-12-08T09:26:54.770Z,97093.65
2017-12-08T09:28:01.083Z,97080.95
2017-12-08T09:29:07.434Z,97094.17
2017-12-08T09:30:13.757Z,97079.52
2017-12-08T09:31:20.671Z,97076.06
2017-12-08T09:32:27.305Z,97072.86
2017-12-08T09:33:33.588Z,97079.74
2017-12-08T09:34:39.977Z,97072.64
2017-12-08T09:35:46.425Z,97061.28
2017-12-08T09:36:52.767Z,97074.15
2017-12-08T09:37:59.637Z,97079.28
2017-12-08T09:39:07.059Z,97090.63
2017-12-08T09:40:13.457Z,97076.00
2017-12-08T09:41:19.808Z,97073.20
2017-12-08T09:42:26.255Z,97056.83
2017-12-08T09:43:32.650Z,97033.29
2017-12-08T09:44:39.412Z,97086.53
2017-12-08T09:45:45.798Z,97045.69
2017-12-08T09:46:52.154Z,97073.73
2017-12-08T09:47:58.518Z,97080.10
2017-12-08T09:49:04.871Z,97095.70
2017-12-08T09:50:11.220Z,97057.94
2017-12-08T09:51:37.136Z,97066.60
2017-12-08T09:52:50.478Z,97043.14
2017-12-08T09:53:56.926Z,97051.08
2017-12-08T09:55:03.291Z,97079.45
2017-12-08T09:56:09.639Z,97073.30
2017-12-08T09:57:16.050Z,97067.73
2017-12-08T09:58:22.829Z,97060.55
2017-12-08T09:59:29.277Z,97053.36
2017-12-08T10:00:35.584Z,97068.72
2017-12-08T10:01:41.800Z,97072.05
2017-12-08T10:02:47.998Z,97071.02
2017-12-08T10:03:54.231Z,97076.37
2017-12-08T10:05:00.942Z,97059.33
2017-12-08T10:06:07.325Z,97055.14
2017-12-08T10:07:13.651Z,97069.77
2017-12-08T10:08:20.003Z,97077.53
2017-12-08T10:09:26.304Z,97064.69
2017-12-08T10:10:33.123Z,97066.73
2017-12-08T10:11:40.779Z,97073.25
2017-12-08T10:12:47.063Z,97063.13
2017-12-08T10:13:53.439Z,97040.34
2017-12-08T10:14:59.861Z,97076.11
2017-12-08T10:16:06.241Z,97053.52
2017-12-08T10:17:12.698Z,97057.67
2017-12-08T10:18:19.880Z,97072.13
2017-12-08T10:19:26.295Z,97046.31
2017-12-08T10:20:32.622Z,97071.63
2017-12-08T10:21:39.144Z,97046.42
2017-12-08T10:22:46.428Z,97078.27
2017-12-08T10:23:52.847Z,97065.42
2017-12-08T10:24:59.604Z,97070.44
2017-12-08T10:26:05.938Z,97038.87
2017-12-08T10:27:12.233Z,97071.94
2017-12-08T10:28:18.595Z,97101.09
2017-12-08T10:29:25.004Z,97055.18
2017-12-08T10:30:31.861Z,97031.84
2017-12-08T10:31:38.445Z,97051.36
2017-12-08T10:32:44.438Z,97056.77
2017-12-08T10:33:50.649Z,97046.60
2017-12-08T10:34:56.788Z,97043.15
2017-12-08T10:36:02.882Z,97054.13
2017-12-08T10:37:09.338Z,97034.89
2017-12-08T10:38:15.826Z,97046.45
2017-12-08T10:39:21.831Z,97056.95
2017-12-08T10:40:27.875Z,97027.13
2017-12-08T10:41:33.922Z,97027.41
2017-12-08T10:42:40.054Z,97045.91
2017-12-08T10:43:46.417Z,97057.34
2017-12-08T10:44:53.283Z,97043.16
2017-12-08T10:45:59.409Z,97044.59
2017-12-08T10:47:06.161Z,97041.94
2017-12-08T10:48:12.368Z,97055.12
2017-12-08T10:49:18.761Z,97042.98
2017-12-08T10:50:25.126Z,97034.56
2017-12-08T10:51:32.096Z,97004.44
2017-12-08T10:52:38.553Z,97033.77
2017-12-08T10:53:44.892Z,97038.48
2017-12-08T10:54:52.450Z,97034.11
2017-12-08T10:55:58.875Z,97033.77
2017-12-08T10:57:05.202Z,97035.23
2017-12-08T10:58:12.077Z,97031.75
2017-12-08T10:59:18.424Z,97035.18
2017-12-08T11:00:28.634Z,97028.08
2017-12-08T11:01:35.074Z,97026.89
2017-12-08T11:03:52.595Z,97012.31
2017-12-08T11:05:00.088Z,97022.89
2017-12-08T11:06:07.018Z,97038.17
2017-12-08T11:07:15.367Z,97035.48
2017-12-08T11:08:21.506Z,97023.10
2017-12-08T11:09:28.423Z,97000.66
2017-12-08T11:10:35.034Z,96995.06
2017-12-08T11:11:41.376Z,97008.30
2017-12-08T11:12:47.781Z,97024.94
2017-12-08T11:13:54.249Z,97023.10
2017-12-08T11:15:01.000Z,97029.98
2017-12-08T11:16:09.000Z,97010.16
2017-12-08T11:17:15.703Z,97008.20
2017-12-08T11:18:21.981Z,97017.53
2017-12-08T11:19:28.406Z,97019.70
2017-12-08T11:20:34.800Z,97006.31
2017-12-08T11:21:41.398Z,97018.58
2017-12-08T11:22:47.751Z,97007.13
2017-12-08T11:23:54.377Z,96995.29
2017-12-08T11:25:00.670Z,97004.34
2017-12-08T11:26:07.069Z,97015.56
2017-12-08T11:27:14.586Z,96986.15
2017-12-08T11:28:21.033Z,97007.53
2017-12-08T11:29:27.350Z,97011.55
2017-12-08T11:30:34.309Z,97003.05
2017-12-08T11:31:40.778Z,97000.69
2017-12-08T11:32:47.101Z,97002.70
2017-12-08T11:33:54.009Z,97006.56
2017-12-08T11:35:01.845Z,96995.49
2017-12-08T11:36:08.453Z,97013.90
2017-12-08T11:37:14.708Z,97003.95
2017-12-08T11:38:21.119Z,97000.69
2017-12-08T11:39:27.488Z,96994.59
2017-12-08T11:40:34.222Z,97005.16
2017-12-08T11:41:40.644Z,96995.91
2017-12-08T11:42:48.234Z,97006.91
2017-12-08T11:43:54.589Z,97006.64
2017-12-08T11:45:01.040Z,96996.92
2017-12-08T11:46:07.389Z,97016.88
2017-12-08T11:47:13.887Z,97014.44
2017-12-08T11:48:20.297Z,97005.31
2017-12-08T11:49:27.016Z,96994.80
2017-12-08T11:50:35.729Z,97022.03
2017-12-08T11:51:41.910Z,96999.34
2017-12-08T11:52:48.141Z,97006.84
2017-12-08T11:53:54.361Z,97015.47
2017-12-08T11:55:00.828Z,96996.31
2017-12-08T11:56:08.116Z,96992.56
2017-12-08T11:57:14.275Z,96999.37
2017-12-08T11:58:21.183Z,97006.64
2017-12-08T11:59:27.980Z,97003.55
2017-12-08T12:00:35.451Z,97003.97
2017-12-08T12:01:41.969Z,97003.03
2017-12-08T12:02:48.549Z,96997.11
2017-12-08T12:03:54.680Z,97002.03
2017-12-08T12:05:00.923Z,96997.65
2017-12-08T12:06:07.287Z,97002.92
2017-12-08T12:07:13.627Z,96993.72
2017-12-08T12:08:20.177Z,97009.03
2017-12-08T12:09:26.917Z,96998.19
2017-12-08T12:10:33.177Z,97001.19
2017-12-08T12:11:40.394Z,97021.33
2017-12-08T12:12:46.748Z,97007.70
2017-12-08T12:13:53.170Z,97015.08
2017-12-08T12:15:00.039Z,97001.38
2017-12-08T12:16:06.350Z,97005.06
2017-12-08T12:17:12.609Z,97012.10
2017-12-08T12:18:19.020Z,97010.61
2017-12-08T12:19:25.892Z,97004.59
2017-12-08T12:20:33.140Z,96993.36
2017-12-08T12:21:41.186Z,97002.66
2017-12-08T12:22:47.701Z,97006.50
2017-12-08T12:23:54.170Z,97006.77
2017-12-08T12:25:00.605Z,97001.63
2017-12-08T12:26:06.930Z,97001.12
2017-12-08T12:27:13.270Z,96998.63
2017-12-08T12:28:19.914Z,97002.19
2017-12-08T12:29:26.951Z,97006.83
2017-12-08T12:30:33.306Z,96999.83
2017-12-08T12:31:39.653Z,97001.19
2017-12-08T12:32:46.201Z,97000.91
2017-12-08T12:33:52.401Z,96999.47
2017-12-08T12:34:59.160Z,96992.26
2017-12-08T12:36:07.411Z,97002.80
2017-12-08T12:37:13.756Z,97000.14
2017-12-08T12:38:20.263Z,96993.08
2017-12-08T12:39:26.556Z,96992.59
2017-12-08T12:40:33.360Z,96995.77
2017-12-08T12:41:40.376Z,97003.98
2017-12-08T12:42:46.840Z,96987.46
2017-12-08T12:43:53.290Z,96990.27
2017-12-08T12:44:59.561Z,97001.00
2017-12-08T12:46:06.299Z,96991.33
2017-12-08T12:47:13.857Z,96997.80
2017-12-08T12:48:20.450Z,96991.56
2017-12-08T12:49:26.808Z,96988.27
2017-12-08T12:50:34.153Z,96985.94
2017-12-08T12:51:40.914Z,96993.06
2017-12-08T12:52:46.986Z,96990.64
2017-12-08T12:53:53.076Z,96991.33
2017-12-08T12:55:01.097Z,96994.08
2017-12-08T12:56:08.233Z,96977.63
2017-12-08T12:57:14.382Z,96966.25
2017-12-08T12:58:21.274Z,96986.55
2017-12-08T12:59:27.693Z,96993.91
2017-12-08T13:00:33.813Z,96987.76
2017-12-08T13:01:40.492Z,96983.52
2017-12-08T13:02:46.556Z,96984.03